createdAt,value
2023-05-01T00:00:31.194Z,98188.78
2023-05-01T00:02:58.653Z,98182.69
2023-05-01T00:05:26.505Z,98196.13
2023-05-01T00:07:53.861Z,98188.63
2023-05-01T00:10:21.413Z,98190.66
2023-05-01T00:12:48.894Z,98187.59
2023-05-01T00:15:16.743Z,98181.19
2023-05-01T00:17:44.166Z,98186.88
2023-05-01T00:20:11.913Z,98191.97
2023-05-01T00:22:39.350Z,98174.34
2023-05-01T00:25:07.378Z,98175.59
2023-05-01T00:27:35.069Z,98177.84
2023-05-01T00:30:03.528Z,98176.66
2023-05-01T00:32:30.963Z,98168.13
2023-05-01T00:34:58.379Z,98168.94
2023-05-01T00:37:26.008Z,98172.91
2023-05-01T00:39:53.655Z,98166.16
2023-05-01T00:42:21.114Z,98169.56
2023-05-01T00:44:48.655Z,98167.91
2023-05-01T00:47:16.136Z,98161.44
2023-05-01T00:49:44.798Z,98162.47
2023-05-01T00:52:12.364Z,98151.31
2023-05-01T00:54:39.987Z,98163.34
2023-05-01T00:57:09.727Z,98159.22
2023-05-01T00:59:37.276Z,98156.72
2023-05-01T01:02:04.976Z,98152.41
2023-05-01T01:04:33.697Z,98151.56
2023-05-01T01:07:21.552Z,98156.25
2023-05-01T01:10:16.412Z,98144.78
2023-05-01T01:13:09.137Z,98145.06
2023-05-01T01:15:47.775Z,98141.66
2023-05-01T01:18:35.411Z,98142.84
2023-05-01T01:21:13.094Z,98140.41
2023-05-01T01:23:43.632Z,98140.59
2023-05-01T01:26:47.497Z,98134.03
2023-05-01T01:29:27.090Z,98136.16
2023-05-01T01:31:57.149Z,98132.75
2023-05-01T01:34:35.488Z,98129.50
2023-05-01T01:37:33.605Z,98129.63
2023-05-01T01:40:09.351Z,98113.84
2023-05-01T01:42:42.281Z,98115.97
2023-05-01T01:45:19.496Z,98107.78
2023-05-01T01:47:48.518Z,98105.38
2023-05-01T01:50:18.633Z,98107.78
2023-05-01T01:52:49.436Z,98098.78
2023-05-01T01:55:21.832Z,98104.53
2023-05-01T01:57:52.150Z,98095.97
2023-05-01T02:00:20.877Z,98099.25
2023-05-01T02:02:52.487Z,98090.94
2023-05-01T02:05:21.843Z,98089.06
2023-05-01T02:07:51.411Z,98089.25
2023-05-01T02:10:21.137Z,98093.63
2023-05-01T02:12:51.185Z,98086.78
2023-05-01T02:15:21.204Z,98085.19
2023-05-01T02:17:51.411Z,98080.53
2023-05-01T02:20:20.133Z,98086.63
2023-05-01T02:22:49.595Z,98085.59
2023-05-01T02:25:17.084Z,98085.84
2023-05-01T02:27:53.732Z,98086.22
2023-05-01T02:30:21.819Z,98077.03
2023-05-01T02:32:49.486Z,98072.38
2023-05-01T02:35:17.768Z,98079.84
2023-05-01T02:37:45.902Z,98080.28
2023-05-01T02:40:15.271Z,98068.63
2023-05-01T02:42:48.206Z,98071.28
2023-05-01T02:45:22.338Z,98068.06
2023-05-01T02:47:51.829Z,98061.69
2023-05-01T02:50:20.653Z,98066.97
2023-05-01T02:52:48.783Z,98063.81
2023-05-01T02:55:36.051Z,98059.66
2023-05-01T02:58:03.658Z,98058.22
2023-05-01T03:00:31.237Z,98055.22
2023-05-01T03:02:58.807Z,98055.00
2023-05-01T03:05:26.926Z,98054.03
2023-05-01T03:07:54.423Z,98047.84
2023-05-01T03:10:22.384Z,98049.81
2023-05-01T03:12:49.797Z,98040.84
2023-05-01T03:15:18.701Z,98043.19
2023-05-01T03:17:46.242Z,98035.13
2023-05-01T03:20:13.817Z,98047.13
2023-05-01T03:22:41.335Z,98046.53
2023-05-01T03:25:09.783Z,98045.47
2023-05-01T03:27:38.659Z,98041.19
2023-05-01T03:30:07.329Z,98035.81
2023-05-01T03:32:39.025Z,98036.25
2023-05-01T03:35:10.774Z,98037.34
2023-05-01T03:37:38.695Z,98031.44
2023-05-01T03:40:06.971Z,98031.16
2023-05-01T03:42:52.933Z,98031.09
2023-05-01T03:45:24.670Z,98034.41
2023-05-01T03:47:52.753Z,98030.69
2023-05-01T03:50:20.731Z,98026.69
2023-05-01T03:52:50.891Z,98024.63
2023-05-01T03:55:18.780Z,98018.63
2023-05-01T03:57:48.018Z,98023.38
2023-05-01T04:00:16.914Z,98010.09
2023-05-01T04:02:46.097Z,98025.19
2023-05-01T04:05:19.055Z,98012.59
2023-05-01T04:07:51.472Z,98016.19
2023-05-01T04:10:19.185Z,98014.38
2023-05-01T04:12:56.916Z,98010.44
2023-05-01T04:15:24.499Z,98011.59
2023-05-01T04:17:52.912Z,98012.97
2023-05-01T04:20:20.706Z,98013.19
2023-05-01T04:22:48.371Z,98011.25
2023-05-01T04:25:16.115Z,98006.09
2023-05-01T04:27:45.283Z,98003.81
2023-05-01T04:30:15.517Z,98001.16
2023-05-01T04:32:43.342Z,98005.25
2023-05-01T04:35:12.361Z,98005.84
2023-05-01T04:37:43.195Z,98003.38
2023-05-01T04:40:11.858Z,97987.03
2023-05-01T04:42:40.706Z,97987.28
2023-05-01T04:45:11.996Z,97986.88
2023-05-01T04:47:39.541Z,97987.41
2023-05-01T04:50:07.304Z,97994.63
2023-05-01T04:52:36.084Z,97996.31
2023-05-01T04:55:05.150Z,97994.72
2023-05-01T04:57:36.590Z,97992.09
2023-05-01T05:00:08.132Z,97990.75
2023-05-01T05:02:45.548Z,97987.09
2023-05-01T05:05:15.248Z,97981.22
2023-05-01T05:07:42.879Z,97989.19
2023-05-01T05:10:28.748Z,98000.06
2023-05-01T05:13:11.000Z,97988.47
2023-05-01T05:15:39.700Z,97995.53
2023-05-01T05:18:10.218Z,97995.78
2023-05-01T05:20:40.748Z,97997.25
2023-05-01T05:23:09.353Z,97990.41
2023-05-01T05:25:36.791Z,97993.53
2023-05-01T05:28:04.759Z,97981.47
2023-05-01T05:30:32.275Z,97987.06
2023-05-01T05:33:00.359Z,97989.03
2023-05-01T05:35:28.517Z,97984.72
2023-05-01T05:37:56.149Z,97984.84
2023-05-01T05:40:24.536Z,97982.94
2023-05-01T05:42:56.700Z,97975.72
2023-05-01T05:45:26.277Z,97973.56
2023-05-01T05:47:53.936Z,97977.75
2023-05-01T05:50:21.629Z,97975.25
2023-05-01T05:52:49.079Z,97974.94
2023-05-01T05:55:16.624Z,97976.75
2023-05-01T05:57:57.970Z,97987.25
2023-05-01T06:00:25.585Z,97980.53
2023-05-01T06:02:53.994Z,97973.75
2023-05-01T06:05:23.116Z,97969.78
2023-05-01T06:07:51.274Z,97961.22
2023-05-01T06:10:18.997Z,97969.84
2023-05-01T06:12:52.782Z,97965.94
2023-05-01T06:15:32.985Z,97967.94
2023-05-01T06:18:00.867Z,97958.75
2023-05-01T06:20:28.411Z,97964.25
2023-05-01T06:22:56.884Z,97963.97
2023-05-01T06:25:33.186Z,97962.66
2023-05-01T06:28:00.803Z,97967.66
2023-05-01T06:30:29.416Z,97965.75
2023-05-01T06:32:57.063Z,97960.09
2023-05-01T06:35:24.713Z,97965.63
2023-05-01T06:37:52.227Z,97961.06
2023-05-01T06:40:20.074Z,97960.88
2023-05-01T06:42:47.852Z,97958.47
2023-05-01T06:45:15.978Z,97956.91
2023-05-01T06:47:43.521Z,97956.63
2023-05-01T06:50:11.348Z,97951.09
2023-05-01T06:52:38.810Z,97952.09
2023-05-01T06:55:08.225Z,97947.53
2023-05-01T06:57:35.727Z,97946.56
2023-05-01T07:00:03.828Z,97942.84
2023-05-01T07:02:31.379Z,97945.53
2023-05-01T07:04:59.783Z,97945.94
2023-05-01T07:07:27.277Z,97939.53
2023-05-01T07:09:54.941Z,97948.53
2023-05-01T07:12:23.423Z,97933.44
2023-05-01T07:14:50.844Z,97928.97
2023-05-01T07:17:18.301Z,97927.38
2023-05-01T07:19:45.789Z,97922.22
2023-05-01T07:22:13.290Z,97915.78
2023-05-01T07:24:40.747Z,97920.56
2023-05-01T07:27:08.184Z,97921.88
2023-05-01T07:29:40.784Z,97917.34
2023-05-01T07:32:08.319Z,97913.81
2023-05-01T07:34:35.952Z,97916.31
2023-05-01T07:37:04.894Z,97910.06
2023-05-01T07:39:32.346Z,97906.63
2023-05-01T07:41:59.895Z,97906.88
2023-05-01T07:44:27.369Z,97903.56
2023-05-01T07:46:54.974Z,97904.94
2023-05-01T07:49:22.677Z,97905.25
2023-05-01T07:51:50.169Z,97906.25
2023-05-01T07:54:22.164Z,97909.81
2023-05-01T07:56:49.939Z,97908.47
2023-05-01T07:59:17.331Z,97911.72
2023-05-01T08:01:44.890Z,97907.94
2023-05-01T08:04:12.428Z,97916.56
2023-05-01T08:06:40.267Z,97914.97
2023-05-01T08:09:08.126Z,97906.09
2023-05-01T08:11:35.605Z,97913.34
2023-05-01T08:14:03.993Z,97903.03
2023-05-01T08:16:31.580Z,97904.16
2023-05-01T08:18:59.677Z,97905.25
2023-05-01T08:21:27.231Z,97911.38
2023-05-01T08:23:56.693Z,97905.53
2023-05-01T08:26:24.241Z,97900.41
2023-05-01T08:28:51.739Z,97899.84
2023-05-01T08:31:19.700Z,97896.00
2023-05-01T08:33:47.350Z,97905.19
2023-05-01T08:36:14.860Z,97906.78
2023-05-01T08:38:42.558Z,97907.59
2023-05-01T08:41:10.360Z,97903.28
2023-05-01T08:43:38.086Z,97908.69
2023-05-01T08:46:09.937Z,97906.91
2023-05-01T08:48:41.203Z,97913.66
2023-05-01T08:51:11.926Z,97905.56
2023-05-01T08:53:41.629Z,97900.28
2023-05-01T08:56:13.658Z,97903.53
2023-05-01T08:58:45.420Z,97899.09
2023-05-01T09:01:16.473Z,97897.53
2023-05-01T09:03:46.436Z,97904.59
2023-05-01T09:06:14.321Z,97897.66
2023-05-01T09:08:41.754Z,97898.28
2023-05-01T09:11:09.529Z,97892.38
2023-05-01T09:13:36.984Z,97890.44
2023-05-01T09:16:06.010Z,97879.56
2023-05-01T09:18:35.002Z,97891.66
2023-05-01T09:21:03.670Z,97888.84
2023-05-01T09:23:31.425Z,97879.38
2023-05-01T09:25:59.923Z,97880.09
2023-05-01T09:29:00.587Z,97871.81
2023-05-01T09:31:29.940Z,97874.00
2023-05-01T09:33:59.562Z,97867.72
2023-05-01T09:36:28.905Z,97870.44
2023-05-01T09:38:56.683Z,97860.94
2023-05-01T09:41:24.580Z,97853.63
2023-05-01T09:43:57.235Z,97843.72
2023-05-01T09:46:26.145Z,97847.00
2023-05-01T09:49:01.735Z,97843.31
2023-05-01T09:51:33.490Z,97836.47
2023-05-01T09:54:03.303Z,97847.91
2023-05-01T09:56:34.138Z,97847.44
2023-05-01T09:59:20.149Z,97833.66
2023-05-01T10:01:50.535Z,97835.59
2023-05-01T10:04:29.550Z,97821.59
2023-05-01T10:06:57.247Z,97824.94
2023-05-01T10:09:29.448Z,97827.63
2023-05-01T10:11:57.967Z,97819.19
2023-05-01T10:14:27.166Z,97815.91
2023-05-01T10:16:54.919Z,97813.22
2023-05-01T10:19:22.654Z,97816.06
2023-05-01T10:21:50.157Z,97807.72
2023-05-01T10:24:18.029Z,97804.78
2023-05-01T10:26:48.758Z,97799.56
2023-05-01T10:29:17.858Z,97803.59
2023-05-01T10:31:45.505Z,97805.22
2023-05-01T10:34:18.423Z,97790.59
2023-05-01T10:36:55.029Z,97788.13
2023-05-01T10:39:33.526Z,97788.88
2023-05-01T10:42:05.947Z,97787.78
2023-05-01T10:44:35.181Z,97777.53
2023-05-01T10:47:24.719Z,97777.91
2023-05-01T10:50:09.792Z,97785.38
2023-05-01T10:53:14.821Z,97772.34
2023-05-01T10:55:46.901Z,97775.22
2023-05-01T10:58:36.927Z,97764.22
2023-05-01T11:01:30.384Z,97759.75
2023-05-01T11:04:00.129Z,97746.41
2023-05-01T11:06:27.938Z,97735.13
2023-05-01T11:08:56.180Z,97734.56
2023-05-01T11:11:27.057Z,97743.53
2023-05-01T11:14:01.644Z,97732.50
2023-05-01T11:16:38.566Z,97730.81
2023-05-01T11:19:21.155Z,97724.47
2023-05-01T11:21:50.637Z,97730.03
2023-05-01T11:24:19.102Z,97720.56
2023-05-01T11:26:48.508Z,97719.31
2023-05-01T11:29:15.981Z,97713.88
2023-05-01T11:31:48.624Z,97709.16
2023-05-01T11:34:16.518Z,97706.53
2023-05-01T11:36:51.352Z,97692.25
2023-05-01T11:39:19.785Z,97685.75
2023-05-01T11:41:47.843Z,97688.00
2023-05-01T11:44:17.422Z,97691.06
2023-05-01T11:46:45.292Z,97690.19
2023-05-01T11:49:12.817Z,97696.66
2023-05-01T11:51:40.432Z,97691.25
2023-05-01T11:54:09.922Z,97676.84
2023-05-01T11:56:38.415Z,97677.22
2023-05-01T11:59:13.885Z,97668.50
2023-05-01T12:01:44.028Z,97658.72
2023-05-01T12:04:13.045Z,97650.13
2023-05-01T12:06:46.083Z,97656.19
2023-05-01T12:09:23.686Z,97644.94
2023-05-01T12:11:53.118Z,97642.66
2023-05-01T12:14:22.170Z,97652.28
2023-05-01T12:16:50.008Z,97636.66
2023-05-01T12:19:18.352Z,97632.84
2023-05-01T12:21:45.933Z,97636.28
2023-05-01T12:24:17.044Z,97635.34
2023-05-01T12:26:46.182Z,97626.25
2023-05-01T12:29:13.966Z,97626.59
2023-05-01T12:31:49.515Z,97619.06
2023-05-01T12:34:18.311Z,97614.59
2023-05-01T12:36:55.068Z,97611.78
2023-05-01T12:39:23.768Z,97596.69
2023-05-01T12:41:51.615Z,97599.00
2023-05-01T12:44:23.958Z,97585.75
2023-05-01T12:47:08.927Z,97591.69
2023-05-01T12:49:37.674Z,97586.84
2023-05-01T12:52:07.943Z,97584.84
2023-05-01T12:54:40.039Z,97582.72
2023-05-01T12:57:15.939Z,97584.84
2023-05-01T12:59:45.197Z,97579.09
2023-05-01T13:02:17.821Z,97577.03
2023-05-01T13:04:49.295Z,97579.66
2023-05-01T13:07:19.129Z,97568.69
2023-05-01T13:10:00.524Z,97566.97
2023-05-01T13:12:29.002Z,97563.91
2023-05-01T13:14:57.064Z,97570.41
2023-05-01T13:17:27.073Z,97571.03
2023-05-01T13:20:00.119Z,97565.00
2023-05-01T13:22:32.564Z,97561.22
2023-05-01T13:25:01.709Z,97567.03
2023-05-01T13:27:29.563Z,97560.69
2023-05-01T13:30:00.025Z,97569.75
2023-05-01T13:32:28.484Z,97556.38
2023-05-01T13:34:56.241Z,97546.75
2023-05-01T13:37:23.787Z,97552.88
2023-05-01T13:39:51.322Z,97550.00
2023-05-01T13:42:26.382Z,97554.88
2023-05-01T13:44:55.785Z,97552.78
2023-05-01T13:47:28.192Z,97550.19
2023-05-01T13:49:56.209Z,97547.47
2023-05-01T13:52:24.563Z,97546.16
2023-05-01T13:54:56.025Z,97544.75
2023-05-01T13:57:25.100Z,97546.38
2023-05-01T13:59:52.589Z,97543.56
2023-05-01T14:02:25.351Z,97542.91
2023-05-01T14:04:53.356Z,97544.31
2023-05-01T14:07:23.084Z,97542.19
2023-05-01T14:09:58.207Z,97531.81
2023-05-01T14:12:30.684Z,97539.19
2023-05-01T14:15:00.588Z,97536.88
2023-05-01T14:17:38.206Z,97530.63
2023-05-01T14:20:07.509Z,97522.66
2023-05-01T14:22:45.741Z,97534.88
2023-05-01T14:25:23.935Z,97528.06
2023-05-01T14:27:52.968Z,97523.91
2023-05-01T14:30:23.264Z,97519.09
2023-05-01T14:32:50.774Z,97520.16
2023-05-01T14:35:20.252Z,97518.94
2023-05-01T14:37:47.964Z,97511.47
2023-05-01T14:40:18.020Z,97506.59
2023-05-01T14:42:45.695Z,97507.75
2023-05-01T14:45:16.795Z,97499.66
2023-05-01T14:47:49.302Z,97505.25
2023-05-01T14:50:20.729Z,97502.00
2023-05-01T14:52:53.315Z,97494.66
2023-05-01T14:55:29.586Z,97498.53
2023-05-01T14:57:57.993Z,97494.06
2023-05-01T15:00:26.412Z,97494.81
2023-05-01T15:02:55.610Z,97491.91
2023-05-01T15:05:24.833Z,97499.81
2023-05-01T15:07:54.940Z,97486.91
2023-05-01T15:10:23.715Z,97483.22
2023-05-01T15:12:51.492Z,97483.09
2023-05-01T15:15:19.135Z,97481.84
2023-05-01T15:17:47.001Z,97484.25
2023-05-01T15:20:14.556Z,97499.44
2023-05-01T15:22:42.068Z,97481.28
2023-05-01T15:25:11.094Z,97486.59
2023-05-01T15:27:38.539Z,97484.97
2023-05-01T15:30:06.651Z,97483.88
2023-05-01T15:32:34.303Z,97485.50
2023-05-01T15:35:01.872Z,97483.03
2023-05-01T15:37:31.397Z,97488.47
2023-05-01T15:39:59.632Z,97487.75
2023-05-01T15:42:27.232Z,97477.47
2023-05-01T15:44:54.673Z,97480.41
2023-05-01T15:47:22.215Z,97477.13
2023-05-01T15:49:49.728Z,97476.34
2023-05-01T15:52:17.172Z,97473.13
2023-05-01T15:54:46.932Z,97471.75
2023-05-01T15:57:17.829Z,97473.72
2023-05-01T15:59:45.427Z,97464.44
2023-05-01T16:02:13.045Z,97471.38
2023-05-01T16:04:40.530Z,97465.13
2023-05-01T16:07:09.044Z,97454.00
2023-05-01T16:09:36.557Z,97462.91
2023-05-01T16:12:06.837Z,97461.91
2023-05-01T16:14:42.998Z,97460.00
2023-05-01T16:17:10.846Z,97457.69
2023-05-01T16:19:39.367Z,97462.69
2023-05-01T16:22:07.416Z,97466.19
2023-05-01T16:24:36.292Z,97465.59
2023-05-01T16:27:03.875Z,97458.63
2023-05-01T16:29:35.353Z,97457.41
2023-05-01T16:32:05.942Z,97457.41
2023-05-01T16:34:33.585Z,97461.47
2023-05-01T16:37:01.133Z,97444.16
2023-05-01T16:39:28.659Z,97454.47
2023-05-01T16:41:56.264Z,97448.41
2023-05-01T16:44:23.818Z,97448.25
2023-05-01T16:46:56.251Z,97448.03
2023-05-01T16:49:24.891Z,97451.25
2023-05-01T16:51:56.784Z,97443.09
2023-05-01T16:54:36.252Z,97453.31
2023-05-01T16:57:03.790Z,97445.72
2023-05-01T16:59:31.674Z,97449.72
2023-05-01T17:01:59.180Z,97450.84
2023-05-01T17:04:26.847Z,97453.16
2023-05-01T17:06:56.195Z,97450.53
2023-05-01T17:09:23.944Z,97447.66
2023-05-01T17:11:56.988Z,97441.97
2023-05-01T17:14:24.928Z,97445.56
2023-05-01T17:16:53.286Z,97451.28
2023-05-01T17:19:20.894Z,97450.31
2023-05-01T17:21:48.387Z,97448.13
2023-05-01T17:24:15.982Z,97442.00
2023-05-01T17:26:43.543Z,97449.41
2023-05-01T17:29:10.952Z,97449.72
2023-05-01T17:31:38.509Z,97453.03
2023-05-01T17:34:06.089Z,97453.69
2023-05-01T17:36:33.683Z,97458.34
2023-05-01T17:39:01.608Z,97455.75
2023-05-01T17:41:29.150Z,97452.31
2023-05-01T17:43:56.764Z,97452.09
2023-05-01T17:46:24.770Z,97452.41
2023-05-01T17:48:52.450Z,97452.19
2023-05-01T17:51:19.995Z,97455.75
2023-05-01T17:53:47.594Z,97450.91
2023-05-01T17:56:15.124Z,97448.00
2023-05-01T17:58:42.678Z,97447.53
2023-05-01T18:01:10.248Z,97445.47
2023-05-01T18:03:38.075Z,97450.06
2023-05-01T18:06:06.175Z,97448.19
2023-05-01T18:08:34.316Z,97449.03
2023-05-01T18:11:02.745Z,97450.69
2023-05-01T18:13:32.547Z,97460.09
2023-05-01T18:16:00.033Z,97453.69
2023-05-01T18:18:27.560Z,97456.41
2023-05-01T18:20:55.301Z,97453.97
2023-05-01T18:23:25.313Z,97454.81
2023-05-01T18:25:54.608Z,97462.88
2023-05-01T18:28:22.347Z,97457.47
2023-05-01T18:30:49.853Z,97455.06
2023-05-01T18:33:18.238Z,97456.41
2023-05-01T18:35:45.727Z,97459.13
2023-05-01T18:38:13.288Z,97458.31
2023-05-01T18:40:40.844Z,97463.94
2023-05-01T18:43:08.420Z,97465.31
2023-05-01T18:45:35.896Z,97467.72
2023-05-01T18:48:03.889Z,97474.16
2023-05-01T18:50:31.447Z,97475.00
2023-05-01T18:52:58.999Z,97471.22
2023-05-01T18:55:26.969Z,97468.81
2023-05-01T18:57:54.484Z,97471.50
2023-05-01T19:00:22.041Z,97473.91
2023-05-01T19:02:52.176Z,97475.78
2023-05-01T19:05:20.264Z,97473.66
2023-05-01T19:07:47.753Z,97471.47
2023-05-01T19:10:15.261Z,97477.38
2023-05-01T19:12:42.722Z,97480.06
2023-05-01T19:15:10.686Z,97479.81
2023-05-01T19:17:38.168Z,97478.47
2023-05-01T19:20:06.456Z,97471.72
2023-05-01T19:22:33.930Z,97477.38
2023-05-01T19:25:01.937Z,97474.66
2023-05-01T19:27:29.388Z,97478.69
2023-05-01T19:30:01.425Z,97478.41
2023-05-01T19:32:29.357Z,97477.31
2023-05-01T19:34:57.136Z,97475.44
2023-05-01T19:37:24.698Z,97482.69
2023-05-01T19:39:52.127Z,97482.94
2023-05-01T19:42:19.717Z,97483.75
2023-05-01T19:44:47.336Z,97486.69
2023-05-01T19:47:14.728Z,97479.13
2023-05-01T19:49:42.214Z,97482.91
2023-05-01T19:52:10.501Z,97485.28
2023-05-01T19:54:37.976Z,97481.06
2023-05-01T19:57:05.691Z,97479.94
2023-05-01T19:59:33.276Z,97487.16
2023-05-01T20:02:01.465Z,97487.44
2023-05-01T20:04:29.180Z,97490.13
2023-05-01T20:06:56.636Z,97490.63
2023-05-01T20:09:25.562Z,97485.53
2023-05-01T20:11:53.042Z,97482.25
2023-05-01T20:14:20.475Z,97484.66
2023-05-01T20:16:49.323Z,97483.31
2023-05-01T20:19:17.906Z,97483.81
2023-05-01T20:21:45.475Z,97486.50
2023-05-01T20:24:12.964Z,97491.56
2023-05-01T20:26:40.484Z,97497.16
2023-05-01T20:29:09.422Z,97494.75
2023-05-01T20:31:37.408Z,97495.53
2023-05-01T20:34:05.028Z,97499.31
2023-05-01T20:36:32.914Z,97498.75
2023-05-01T20:39:00.353Z,97513.44
2023-05-01T20:41:29.181Z,97514.44
2023-05-01T20:43:56.684Z,97514.44
2023-05-01T20:46:24.941Z,97533.16
2023-05-01T20:48:53.584Z,97537.97
2023-05-01T20:51:21.137Z,97535.19
2023-05-01T20:53:48.948Z,97534.09
2023-05-01T20:56:16.371Z,97534.09
2023-05-01T20:58:43.852Z,97541.56
2023-05-01T21:01:11.917Z,97544.47
2023-05-01T21:03:40.350Z,97540.72
2023-05-01T21:06:08.138Z,97542.59
2023-05-01T21:08:35.649Z,97538.81
2023-05-01T21:11:03.077Z,97544.94
2023-05-01T21:13:31.808Z,97554.00
2023-05-01T21:15:59.794Z,97555.34
2023-05-01T21:18:32.613Z,97550.44
2023-05-01T21:21:02.095Z,97555.66
2023-05-01T21:23:29.917Z,97561.47
2023-05-01T21:25:57.598Z,97568.63
2023-05-01T21:28:25.137Z,97570.19
2023-05-01T21:30:53.954Z,97579.91
2023-05-01T21:33:21.512Z,97587.31
2023-05-01T21:35:49.326Z,97596.09
2023-05-01T21:38:16.737Z,97598.41
2023-05-01T21:40:46.191Z,97598.09
2023-05-01T21:43:13.918Z,97596.34
2023-05-01T21:45:44.617Z,97597.75
2023-05-01T21:48:15.662Z,97606.81
2023-05-01T21:50:43.237Z,97607.50
2023-05-01T21:53:10.720Z,97594.53
2023-05-01T21:55:38.886Z,97597.38
2023-05-01T21:58:06.301Z,97608.56
2023-05-01T22:00:33.971Z,97608.16
2023-05-01T22:03:07.059Z,97611.09
2023-05-01T22:05:34.990Z,97609.97
2023-05-01T22:08:02.420Z,97611.38
2023-05-01T22:10:29.904Z,97606.72
2023-05-01T22:12:57.330Z,97613.72
2023-05-01T22:15:24.868Z,97619.53
2023-05-01T22:17:52.340Z,97608.59
2023-05-01T22:20:19.839Z,97606.03
2023-05-01T22:22:47.466Z,97613.72
2023-05-01T22:25:14.991Z,97615.91
2023-05-01T22:27:42.408Z,97614.53
2023-05-01T22:30:10.528Z,97610.94
2023-05-01T22:32:38.020Z,97616.78
2023-05-01T22:35:07.458Z,97615.97
2023-05-01T22:37:34.904Z,97614.91
2023-05-01T22:40:02.608Z,97616.78
2023-05-01T22:42:30.609Z,97615.66
2023-05-01T22:44:58.090Z,97619.13
2023-05-01T22:47:25.525Z,97617.25
2023-05-01T22:49:53.050Z,97615.97
2023-05-01T22:52:20.530Z,97626.34
2023-05-01T22:54:48.010Z,97623.09
2023-05-01T22:57:16.077Z,97623.34
2023-05-01T22:59:45.715Z,97620.19
2023-05-01T23:02:16.450Z,97627.03
2023-05-01T23:04:44.154Z,97632.16
2023-05-01T23:07:14.086Z,97629.50
2023-05-01T23:09:41.731Z,97629.00
2023-05-01T23:12:16.816Z,97624.69
2023-05-01T23:14:46.429Z,97629.00
2023-05-01T23:17:14.987Z,97627.94
2023-05-01T23:19:43.612Z,97627.13
2023-05-01T23:22:13.184Z,97626.88
2023-05-01T23:24:44.454Z,97623.19
2023-05-01T23:27:12.578Z,97621.06
2023-05-01T23:29:40.983Z,97617.59
2023-05-01T23:32:22.223Z,97615.50
2023-05-01T23:34:49.729Z,97622.69
2023-05-01T23:37:17.132Z,97622.59
2023-05-01T23:39:46.013Z,97624.00
2023-05-01T23:42:13.804Z,97626.88
2023-05-01T23:44:41.308Z,97623.66
2023-05-01T23:47:09.435Z,97619.84
2023-05-01T23:49:37.269Z,97618.13
2023-05-01T23:52:06.977Z,97623.41
2023-05-01T23:54:34.571Z,97615.28
2023-05-01T23:57:02.652Z,97620.22
2023-05-01T23:59:30.232Z,97618.81
